Air Navigation Services of Czech Republic  
Last data update:  21.01.2020 23:18:27 UTC česká verze
   METEO Page displayed:  21.01.2020 23:18:40 UTC  
help
METAR EDDB 212250Z 25008KT 9999 BKN014 01/M00 Q1035 NOSIG=
METAR EDDC 212250Z 21006KT CAVOK M03/M04 Q1035=
METAR EDDE 212250Z 22008KT CAVOK M04/M06 Q1036=
METAR EDDF 212250Z 18001KT CAVOK M03/M04 Q1038 NOSIG=
METAR EDDM 212250Z 14003KT 5000 -SN BR OVC004 M03/M04 Q1036 TEMPO 4000=
METAR EDDN 212250Z 13005KT 5000 BR OVC004 M02/M03 Q1037=
METAR EDDP 212250Z 23006KT CAVOK M03/M04 Q1036 NOSIG=
METAR EDDT 212250Z 26008KT 9999 BKN013 03/00 Q1034=
METAR EDQM NIL
METAR EPBY 212300Z 26015KT 9000 OVC006 03/01 Q1028=
METAR EPGD 212300Z 27017KT 9999 -RA BKN012 05/03 Q1022=
METAR EPKK 212300Z 25009KT CAVOK M01/M03 Q1033=
METAR EPKT 212300Z 23009KT 6000 NSC M02/M04 Q1033=
METAR EPLL 212300Z 27017KT 9999 OVC014 01/M02 Q1031=
METAR EPPO 212300Z 26010KT 9999 OVC013 02/M01 Q1031=
METAR EPRZ 212300Z 22009KT CAVOK M00/M04 Q1032=
METAR EPWA 212300Z 26010KT 230V300 9999 OVC012 02/M01 Q1028 TEMPO BKN009=
METAR EPWR 212300Z 27005KT 250V310 CAVOK M01/M04 Q1034=
METAR LHBP 212300Z 21002KT 4100 BR OVC015 M00/M00 Q1038 NOSIG=
METAR LHSM 212245Z AUTO VRB03KT 3900 BR NCD M04/M05 Q1038=
SPECI LKBC 212304Z AUTO 17004KT 130V210 0350 FZFG VV002 M03/M04 Q1036=
METAR LKCV 212300Z 20004KT 130V260 7000 OVC008 M02/M04 Q1037 NOSIG RMK GRN GRN=
METAR LKKB 212300Z 19007KT 6000 OVC005 M02/M04 Q1036 NOSIG RMK YLO=
METAR LKKU NIL
METAR LKKV 212300Z 00000KT CAVOK M07/M07 Q1035 RMK REG QNH 1031=
METAR LKLN 212300Z AUTO 17003KT 140V220 5000 BR OVC003 M03/M03 Q1037=
METAR LKMT 212300Z 23020KT 8000 OVC010 M01/M03 Q1035 NOSIG RMK REG QNH 1031=
METAR LKNA 212300Z 23004KT 180V280 0500 R31/1100D FZFG OVC001 M04/M05 Q1036 RMK RED=
METAR LKPD 212300Z 17004KT 150V230 9999 OVC008 M02/M04 Q1037 RMK GRN=
METAR LKPJ 212300Z AUTO 25005KT 9000 OVC009 M02/M04 Q1038=
METAR LKPR 212300Z 22008KT 0900 R24/1300D R30/1000D FZFG VV002 M03/M04 Q1036 NOSIG RMK REG QNH 1031=
METAR LKTB 212300Z 31004KT 9999 OVC010 M01/M03 Q1037 R27/21//95 BECMG OVC009 RMK REG QNH 1031=
METAR LKVO NIL
METAR LOWI 212250Z AUTO VRB02KT 9999 NSC M07/M08 Q1036=
METAR LOWL 212250Z AUTO 03003KT 340V070 7000 SCT005 BKN006 M01/M02 Q1037=
METAR LOWS 212250Z AUTO VRB02KT 5000 BR BKN003 M03/M03 Q1036=
METAR LOWW 212250Z VRB01KT 3400 BR SCT002 BKN003 M01/M01 Q1038 R88/19//95 BECMG 2000 TEMPO BKN001=
METAR LZIB 212300Z 06003KT 0400 R31/1000U R22/1200U FZFG BKN001 OVC002 M01/M01 Q1038 R13/CLRD//=
METAR LZKZ 212300Z 19005KT 5000 BR OVC004 M02/M03 Q1037=
METAR LZMC NIL
METAR LZPP 212300Z AUTO VRB02KT 3700 BR OVC005/// M02/M03 Q1038=
METAR LZSL 212300Z 01001KT 1500 BR OVC002 M04/M05 Q1037=
METAR LZTT 212300Z VRB01KT 0100 R27/0450N FZFG OVC001 M06/M07 Q1033=
METAR LZZI 212300Z 15001KT 4000 BR BKN004 OVC007 M03/M04 Q1037=